| time (UTC) | temp F | wind direction | speed MPH | gust MPH | rain 1hr in | rain 24hr in | rain mn in | humidity % | barometer mb |
| 20260504044543 | 56 | 0 | 0.0 | 0.0 | 0.00 | 0.05 | 0.05 | 83 | 1019.7 |
| 20260504043046 | 57 | 0 | 0.0 | 0.0 | 0.00 | 0.05 | 0.05 | 82 | 1019.7 |
| 20260504041551 | 57 | 0 | 0.0 | 0.0 | 0.00 | 0.05 | 0.05 | 82 | 1019.6 |
| 20260504040123 | 57 | 0 | 1.0 | 3.0 | 0.00 | 0.05 | 0.05 | 81 | 1019.7 |
| 20260504034547 | 58 | 0 | 0.0 | 1.0 | 0.00 | 0.05 | 0.05 | 81 | 1019.5 |
| 20260504033049 | 59 | 0 | 0.0 | 2.0 | 0.00 | 0.05 | 0.05 | 80 | 1019.6 |
| 20260504031553 | 59 | 0 | 0.0 | 0.0 | 0.00 | 0.05 | 0.05 | 79 | 1019.7 |
| 20260504030045 | 60 | 0 | 0.0 | 0.0 | 0.00 | 0.05 | 0.05 | 78 | 1019.6 |
| 20260504024538 | 61 | 0 | 0.0 | 0.0 | 0.00 | 0.05 | 0.05 | 76 | 1019.7 |
| 20260504023038 | 62 | 0 | 0.0 | 0.0 | 0.00 | 0.05 | 0.05 | 74 | 1019.6 |
| 20260504021543 | 62 | 0 | 0.0 | 0.0 | 0.00 | 0.05 | 0.05 | 72 | 1019.3 |
| 20260504020050 | 63 | 0 | 0.0 | 2.0 | 0.00 | 0.05 | 0.05 | 70 | 1019.3 |
| 20260504014543 | 64 | 0 | 0.0 | 1.0 | 0.00 | 0.06 | 0.05 | 67 | 1019.1 |
| 20260504013043 | 65 | 0 | 0.0 | 0.0 | 0.00 | 0.06 | 0.05 | 63 | 1018.9 |
| 20260504011546 | 66 | 0 | 0.0 | 1.0 | 0.00 | 0.06 | 0.05 | 61 | 1018.8 |
| 20260504010048 | 68 | 255 | 0.0 | 2.0 | 0.00 | 0.06 | 0.05 | 58 | 1018.6 |
| 20260504004542 | 69 | 0 | 0.0 | 3.0 | 0.00 | 0.06 | 0.05 | 55 | 1018.5 |
| 20260504003041 | 70 | 0 | 0.0 | 2.0 | 0.00 | 0.06 | 0.05 | 53 | 1018.4 |
| 20260504001553 | 70 | 207 | 1.0 | 8.0 | 0.00 | 0.06 | 0.05 | 52 | 1018.3 |
| 20260504000051 | 72 | 261 | 1.0 | 4.0 | 0.00 | 0.06 | 0.05 | 50 | 1018.2 |
| 20260503234602 | 73 | 215 | 1.0 | 9.0 | 0.00 | 0.07 | 0.05 | 47 | 1018.2 |
| 20260503233048 | 76 | 198 | 1.0 | 9.0 | 0.00 | 0.07 | 0.05 | 43 | 1018.2 |
| 20260503231543 | 77 | 238 | 2.0 | 8.0 | 0.00 | 0.07 | 0.05 | 36 | 1018.1 |
| 20260503230048 | 77 | 271 | 1.0 | 9.0 | 0.00 | 0.07 | 0.05 | 36 | 1018.1 |
| 20260503224544 | 78 | 257 | 1.0 | 6.0 | 0.00 | 0.07 | 0.05 | 34 | 1018.0 |
| 20260503223044 | 78 | 288 | 1.0 | 4.0 | 0.00 | 0.07 | 0.05 | 33 | 1018.0 |
| 20260503221557 | 77 | 280 | 1.0 | 9.0 | 0.00 | 0.07 | 0.05 | 32 | 1017.9 |
| 20260503220042 | 78 | 46 | 1.0 | 8.0 | 0.00 | 0.07 | 0.05 | 35 | 1018.2 |
| 20260503214549 | 78 | 201 | 1.0 | 4.0 | 0.00 | 0.08 | 0.05 | 34 | 1018.2 |
| 20260503213046 | 78 | 324 | 1.0 | 8.0 | 0.00 | 0.08 | 0.05 | 31 | 1018.4 |
| 20260503211549 | 79 | 100 | 2.0 | 8.0 | 0.00 | 0.08 | 0.05 | 31 | 1018.5 |
| 20260503210044 | 79 | 46 | 1.0 | 6.0 | 0.00 | 0.08 | 0.05 | 31 | 1018.6 |
| 20260503204544 | 79 | 5 | 2.0 | 7.0 | 0.00 | 0.10 | 0.05 | 32 | 1018.5 |
| 20260503203053 | 79 | 284 | 1.0 | 9.0 | 0.01 | 0.10 | 0.05 | 30 | 1018.9 |
| 20260503201538 | 79 | 289 | 1.0 | 3.0 | 0.01 | 0.10 | 0.05 | 31 | 1019.0 |
| 20260503200040 | 79 | 67 | 3.0 | 7.0 | 0.01 | 0.10 | 0.05 | 29 | 1019.3 |
| 20260503194554 | 79 | 273 | 1.0 | 5.0 | 0.01 | 0.13 | 0.05 | 34 | 1019.5 |
| 20260503193043 | 79 | 327 | 1.0 | 6.0 | 0.00 | 0.12 | 0.04 | 33 | 1019.8 |
| 20260503191541 | 78 | 224 | 1.0 | 7.0 | 0.00 | 0.12 | 0.04 | 33 | 1020.1 |
| 20260503190039 | 78 | 21 | 1.0 | 7.0 | 0.00 | 0.12 | 0.04 | 32 | 1020.4 |
| 20260503184538 | 77 | 281 | 1.0 | 6.0 | 0.00 | 0.18 | 0.04 | 32 | 1020.6 |
| 20260503183044 | 77 | 257 | 1.0 | 4.0 | 0.00 | 0.18 | 0.04 | 27 | 1020.8 |
| 20260503181544 | 77 | 306 | 2.0 | 5.0 | 0.00 | 0.18 | 0.04 | 33 | 1020.8 |
| 20260503180055 | 76 | 326 | 2.0 | 6.0 | 0.01 | 0.18 | 0.04 | 31 | 1020.8 |
| 20260503174540 | 76 | 288 | 2.0 | 7.0 | 0.01 | 0.28 | 0.04 | 33 | 1021.0 |
| 20260503173046 | 75 | 293 | 1.0 | 6.0 | 0.01 | 0.28 | 0.04 | 35 | 1021.0 |
| 20260503171547 | 76 | 350 | 1.0 | 7.0 | 0.01 | 0.28 | 0.04 | 38 | 1021.2 |
| 20260503081542 | 50 | 0 | 0.0 | 0.0 | 0.00 | 0.52 | 0.01 | 85 | 1020.0 |